Time;durP1;ratioP1;P1;durP2;ratioP2;P2;SDS_P1;SDS_P2;PMS_P1;PMS_P2;Temp;Humidity;BMP_temperature;BMP_pressure;BME280_temperature;BME280_humidity;BME280_pressure;Samples;Min_cycle;Max_cycle;Signal;HPM_P1;HPM_P2
2022/02/10 00:04:40;;;;;;;;;;;;;;;18.48;47.84;100850.22;2061699;28;19925;-42
2022/02/10 00:16:36;;;;;;;;;;;;;;;18.38;48.17;100844.66;2065674;28;20104;-42
2022/02/10 00:21:23;;;;;;;;;;;;;;;18.37;48.26;100843.78;2060200;28;20647;-42
2022/02/10 00:22:48;;;;;;;;;;;;;;;18.36;48.22;100841.16;2066067;28;19925;-43
2022/02/10 00:24:21;;;;;;;;;;;;;;;18.35;48.12;100843.03;2065710;28;19929;-43
2022/02/10 00:34:31;;;;;;;;;;;;;;;18.29;48.36;100835.34;2063510;28;19925;-42
2022/02/10 00:37:11;;;;;;;;;;;;;;;18.27;48.52;100834.59;2051228;28;20001;-42
2022/02/10 00:38:11;;;;;;;;;;;;;;;18.28;48.60;100833.63;2061718;28;19925;-42
2022/02/10 00:39:45;;;;;;;;;;;;;;;18.28;48.58;100838.22;2066853;28;21021;-43
2022/02/10 00:40:36;;;;;;;;;;;;;;;18.26;48.62;100835.59;2062015;28;20199;-42
2022/02/10 00:41:36;;;;;;;;;;;;;;;18.26;48.51;100834.75;2055612;28;19983;-42
2022/02/10 00:42:36;;;;;;;;;;;;;;;18.26;48.45;100843.78;2048261;28;19976;-42
2022/02/10 00:43:37;;;;;;;;;;;;;;;18.26;48.66;100838.34;2052595;28;20180;-45
2022/02/10 00:44:37;;;;;;;;;;;;;;;18.25;48.70;100839.34;2065053;28;19925;-43
2022/02/10 00:45:37;;;;;;;;;;;;;;;18.24;48.55;100840.31;2061408;28;19921;-43
2022/02/10 00:46:37;;;;;;;;;;;;;;;18.24;48.61;100828.53;2064080;28;19956;-43
2022/02/10 00:49:08;;;;;;;;;;;;;;;18.23;48.56;100830.41;2049820;28;20295;-43
2022/02/10 00:50:08;;;;;;;;;;;;;;;18.23;48.74;100832.25;2064267;28;20157;-44
2022/02/10 00:51:09;;;;;;;;;;;;;;;18.22;48.76;100831.38;2065984;28;19921;-43
2022/02/10 00:52:10;;;;;;;;;;;;;;;18.22;48.55;100834.09;2061748;28;19924;-42
2022/02/10 00:53:19;;;;;;;;;;;;;;;18.21;48.63;100833.25;2065080;28;19932;-43
2022/02/10 00:54:23;;;;;;;;;;;;;;;18.21;48.71;100838.72;2066874;28;19925;-43
2022/02/10 00:55:27;;;;;;;;;;;;;;;18.22;48.53;100828.66;2061538;28;19921;-44
2022/02/10 00:56:28;;;;;;;;;;;;;;;18.22;48.61;100825.94;2058461;28;20220;-43
2022/02/10 00:57:28;;;;;;;;;;;;;;;18.21;48.65;100826.94;2047539;28;20348;-43
2022/02/10 00:58:32;;;;;;;;;;;;;;;18.20;48.82;100825.19;2054868;28;20772;-44
2022/02/10 01:07:03;;;;;;;;;;;;;;;18.19;48.69;100824.31;2050718;28;19921;-43
2022/02/10 01:12:48;;;;;;;;;;;;;;;18.17;48.98;100828.16;2069209;28;19952;-43
2022/02/10 01:14:31;;;;;;;;;;;;;;;18.16;48.76;100829.19;2059903;28;20247;-42
2022/02/10 01:29:34;;;;;;;;;;;;;;;18.10;48.84;100835.13;2065749;28;19921;-42
2022/02/10 01:29:53;;;;;;;;;;;;;;;18.10;49.14;100840.56;2066170;28;20351;-42
2022/02/10 01:30:56;;;;;;;;;;;;;;;18.08;49.25;100839.81;2065261;28;19925;-42
2022/02/10 01:31:57;;;;;;;;;;;;;;;18.08;48.97;100834.38;2063079;28;19987;-42
2022/02/10 01:33:01;;;;;;;;;;;;;;;18.07;49.28;100833.50;2055178;28;19951;-42
2022/02/10 01:34:01;;;;;;;;;;;;;;;18.07;49.04;100829.91;2055830;28;19946;-42
2022/02/10 01:35:05;;;;;;;;;;;;;;;18.06;49.00;100828.19;2064129;28;19929;-42
2022/02/10 01:36:06;;;;;;;;;;;;;;;18.08;49.09;100837.09;2065556;28;19928;-42
2022/02/10 01:37:06;;;;;;;;;;;;;;;18.06;49.13;100828.19;2063336;28;19913;-42
2022/02/10 01:38:06;;;;;;;;;;;;;;;18.07;49.11;100838.09;2062443;28;19927;-43
2022/02/10 01:39:07;;;;;;;;;;;;;;;18.05;49.17;100831.91;2066493;28;19928;-42
2022/02/10 01:58:38;;;;;;;;;;;;;;;18.03;49.19;100844.78;2061536;28;20024;-42
2022/02/10 02:03:40;;;;;;;;;;;;;;;18.03;48.85;100833.88;2043075;28;19926;-42
2022/02/10 02:04:44;;;;;;;;;;;;;;;18.05;48.85;100837.34;2059676;28;19917;-42
2022/02/10 02:05:50;;;;;;;;;;;;;;;18.03;49.00;100836.59;2065154;28;19931;-43
2022/02/10 02:06:54;;;;;;;;;;;;;;;18.04;48.88;100838.38;2054599;28;20346;-41
2022/02/10 02:07:56;;;;;;;;;;;;;;;18.04;49.05;100838.38;2055943;28;19914;-42
2022/02/10 02:08:59;;;;;;;;;;;;;;;18.04;48.97;100835.63;2053017;28;19929;-42
2022/02/10 02:10:00;;;;;;;;;;;;;;;18.02;48.98;100837.63;2047224;28;20013;-42
2022/02/10 02:11:01;;;;;;;;;;;;;;;18.02;49.05;100838.47;2051631;28;19929;-42
2022/02/10 02:12:05;;;;;;;;;;;;;;;18.02;49.04;100835.75;2066208;28;19928;-43
2022/02/10 02:13:05;;;;;;;;;;;;;;;18.02;48.91;100826.69;2065606;28;20045;-42
2022/02/10 02:14:11;;;;;;;;;;;;;;;18.03;48.91;100828.44;2063032;28;20023;-42
2022/02/10 02:15:14;;;;;;;;;;;;;;;18.03;49.06;100833.88;2065165;28;20374;-42
2022/02/10 02:16:14;;;;;;;;;;;;;;;18.01;48.91;100823.13;2063842;28;19921;-42
2022/02/10 02:17:14;;;;;;;;;;;;;;;18.03;49.10;100834.78;2062249;28;19921;-42
2022/02/10 02:18:16;;;;;;;;;;;;;;;18.02;49.03;100826.69;2065069;28;19921;-43
2022/02/10 02:19:17;;;;;;;;;;;;;;;18.02;48.89;100819.38;2058998;28;19968;-43
2022/02/10 02:20:17;;;;;;;;;;;;;;;18.01;49.22;100814.94;2063469;28;20267;-42
2022/02/10 02:21:18;;;;;;;;;;;;;;;18.00;48.96;100819.50;2063165;28;19925;-44
2022/02/10 02:22:19;;;;;;;;;;;;;;;18.00;49.05;100824.09;2060646;28;19920;-44
2022/02/10 02:23:21;;;;;;;;;;;;;;;17.99;49.03;100831.41;2064511;28;20743;-42
2022/02/10 02:24:22;;;;;;;;;;;;;;;18.00;48.91;100822.22;2062308;28;19971;-42
2022/02/10 02:25:23;;;;;;;;;;;;;;;17.98;49.05;100821.50;2066035;28;20228;-42
2022/02/10 02:26:26;;;;;;;;;;;;;;;17.97;49.19;100825.22;2065787;28;20301;-43
2022/02/10 02:27:27;;;;;;;;;;;;;;;17.97;49.19;100819.75;2061241;28;20336;-43
2022/02/10 02:28:27;;;;;;;;;;;;;;;17.97;49.09;100818.88;2063070;28;19921;-42
2022/02/10 02:29:42;;;;;;;;;;;;;;;17.97;49.34;100822.47;2063287;28;19957;-42
2022/02/10 02:30:53;;;;;;;;;;;;;;;17.96;49.16;100820.75;2065429;28;20364;-41
2022/02/10 02:31:59;;;;;;;;;;;;;;;17.96;49.02;100823.47;2056040;28;19922;-42
2022/02/10 02:34:00;;;;;;;;;;;;;;;17.96;49.23;100818.03;2054573;28;20292;-42
2022/02/10 03:06:14;;;;;;;;;;;;;;;17.84;49.53;100797.22;2067467;28;19928;-41
2022/02/10 03:08:22;;;;;;;;;;;;;;;17.85;49.54;100792.63;2067297;28;20032;-41
2022/02/10 03:09:26;;;;;;;;;;;;;;;17.84;49.47;100797.22;2065333;28;19932;-41
2022/02/10 03:11:30;;;;;;;;;;;;;;;17.84;49.38;100790.91;2063952;28;19921;-43
2022/02/10 03:12:30;;;;;;;;;;;;;;;17.82;49.47;100793.75;2067180;28;19921;-42
2022/02/10 03:13:36;;;;;;;;;;;;;;;17.83;49.64;100795.47;2065357;28;20248;-42
2022/02/10 03:14:44;;;;;;;;;;;;;;;17.83;49.62;100789.13;2057165;28;21095;-42
2022/02/10 03:16:13;;;;;;;;;;;;;;;17.82;49.64;100791.00;2050779;28;19917;-42
2022/02/10 03:20:42;;;;;;;;;;;;;;;17.80;49.48;100798.44;2041174;28;20377;-43
2022/02/10 04:13:52;;;;;;;;;;;;;;;17.63;49.65;100820.72;2054295;28;19914;-43
2022/02/10 04:16:20;;;;;;;;;;;;;;;17.63;49.84;100810.66;2055153;28;19913;-43
2022/02/10 04:22:04;;;;;;;;;;;;;;;17.62;49.97;100810.81;2050356;28;20021;-43
2022/02/10 04:27:30;;;;;;;;;;;;;;;17.61;49.74;100823.56;2063822;28;19925;-43
2022/02/10 04:30:45;;;;;;;;;;;;;;;17.61;49.90;100819.97;2061858;28;19920;-43
2022/02/10 04:42:45;;;;;;;;;;;;;;;17.55;50.00;100819.47;2064307;28;20221;-43
2022/02/10 05:05:12;;;;;;;;;;;;;;;17.60;49.83;100820.97;2065312;28;19987;-43
2022/02/10 05:32:31;;;;;;;;;;;;;;;17.48;49.99;100796.41;2062496;28;19964;-42
2022/02/10 05:34:41;;;;;;;;;;;;;;;17.47;49.78;100789.25;2064342;28;19921;-43
2022/02/10 05:35:59;;;;;;;;;;;;;;;17.48;49.95;100790.09;2064398;28;19957;-42
2022/02/10 05:37:01;;;;;;;;;;;;;;;17.47;49.86;100791.97;2061850;28;19960;-42
2022/02/10 05:39:22;;;;;;;;;;;;;;;17.46;49.95;100792.94;2073094;28;20127;-42
2022/02/10 05:44:32;;;;;;;;;;;;;;;17.44;49.94;100794.94;2066247;28;20197;-44
2022/02/10 05:45:32;;;;;;;;;;;;;;;17.44;49.89;100794.06;2063068;28;19921;-42
2022/02/10 05:54:04;;;;;;;;;;;;;;;17.39;49.90;100791.69;2064219;28;20390;-42
2022/02/10 05:55:36;;;;;;;;;;;;;;;17.40;49.79;100793.44;2062582;28;19917;-44
2022/02/10 05:58:00;;;;;;;;;;;;;;;17.38;49.98;100795.41;2070737;28;19979;-44
2022/02/10 05:59:22;;;;;;;;;;;;;;;17.38;49.95;100795.41;2060544;28;19924;-43
2022/02/10 06:02:16;;;;;;;;;;;;;;;17.37;49.98;100793.69;2060950;28;19921;-44
2022/02/10 07:15:36;;;;;;;;;;;;;;;17.50;49.13;100832.59;2066237;28;19917;-43
2022/02/10 07:53:13;;;;;;;;;;;;;;;17.47;48.84;100853.78;2067479;28;20443;-43
2022/02/10 07:54:24;;;;;;;;;;;;;;;17.46;48.82;100852.91;2066818;28;20323;-44
2022/02/10 07:57:10;;;;;;;;;;;;;;;17.44;48.80;100854.91;2064889;28;19931;-42
2022/02/10 08:56:10;;;;;;;;;;;;;;;17.10;49.54;100868.44;2065621;28;20010;-45
2022/02/10 08:59:58;;;;;;;;;;;;;;;17.12;49.27;100855.56;2065716;28;20913;-45
2022/02/10 09:06:05;;;;;;;;;;;;;;;17.09;49.74;100839.44;2065007;28;19924;-44
2022/02/10 09:12:20;;;;;;;;;;;;;;;16.97;50.18;100845.81;2065360;28;19920;-46
2022/02/10 09:16:20;;;;;;;;;;;;;;;17.00;50.16;100833.81;2063240;28;19924;-45
2022/02/10 09:18:54;;;;;;;;;;;;;;;17.03;50.03;100852.69;2065334;28;20595;-46
2022/02/10 09:20:16;;;;;;;;;;;;;;;17.05;49.83;100843.41;2062860;28;20355;-46
2022/02/10 09:55:42;;;;;;;;;;;;;;;17.09;49.83;100849.47;2064506;28;19968;-42
2022/02/10 10:00:42;;;;;;;;;;;;;;;17.10;49.65;100843.91;2059818;28;19928;-41
2022/02/10 10:01:59;;;;;;;;;;;;;;;17.10;49.83;100841.19;2064401;28;20406;-41
2022/02/10 10:03:08;;;;;;;;;;;;;;;17.10;49.67;100843.91;2063379;28;19928;-42
2022/02/10 10:04:16;;;;;;;;;;;;;;;17.11;49.85;100848.34;2065529;28;20006;-42
2022/02/10 10:05:41;;;;;;;;;;;;;;;17.11;49.86;100853.81;2057752;28;19921;-42
2022/02/10 10:07:01;;;;;;;;;;;;;;;17.12;49.69;100841.06;2050499;28;19914;-42
2022/02/10 10:14:52;;;;;;;;;;;;;;;17.15;49.76;100840.84;2066089;28;20017;-41
2022/02/10 10:22:21;;;;;;;;;;;;;;;17.19;49.93;100839.59;2064952;28;19927;-41
2022/02/10 10:25:10;;;;;;;;;;;;;;;17.19;49.98;100838.72;2066044;28;20742;-41
2022/02/10 10:27:10;;;;;;;;;;;;;;;17.18;49.89;100837.00;2062587;28;19932;-41
2022/02/10 10:44:13;;;;;;;;;;;;;;;17.19;49.82;100836.00;2057505;28;20005;-41
2022/02/10 10:50:26;;;;;;;;;;;;;;;17.06;51.60;100812.44;2067914;28;20443;-41
2022/02/10 10:53:04;;;;;;;;;;;;;;;17.03;51.66;100807.25;2051750;28;19963;-41
2022/02/10 10:56:32;;;;;;;;;;;;;;;17.02;51.53;100794.59;2065677;28;20287;-41
2022/02/10 10:57:37;;;;;;;;;;;;;;;17.03;51.69;100807.25;2065235;28;20176;-40
2022/02/10 10:58:57;;;;;;;;;;;;;;;17.01;52.31;100803.75;2065864;28;19925;-42
2022/02/10 11:22:52;;;;;;;;;;;;;;;16.78;50.91;100781.03;2063664;28;19921;-42
2022/02/10 11:37:40;;;;;;;;;;;;;;;16.84;51.25;100756.06;2066595;28;20445;-41
2022/02/10 11:38:48;;;;;;;;;;;;;;;16.86;51.35;100753.22;2063965;28;20240;-41
2022/02/10 11:40:05;;;;;;;;;;;;;;;16.89;51.18;100755.69;2067119;28;19920;-41
2022/02/10 11:43:32;;;;;;;;;;;;;;;16.92;51.09;100756.31;2065813;28;20769;-41
2022/02/10 11:46:39;;;;;;;;;;;;;;;16.95;51.58;100747.03;2063643;28;19936;-41
2022/02/10 12:01:45;;;;;;;;;;;;;;;16.98;52.39;100708.69;2060301;28;21248;-41
2022/02/10 13:23:30;;;;;;;;;;;;;;;16.82;49.77;100599.22;2066573;28;19917;-41
2022/02/10 13:29:05;;;;;;;;;;;;;;;16.85;49.78;100596.25;2064956;28;20004;-41
2022/02/10 13:36:18;;;;;;;;;;;;;;;16.87;49.66;100583.38;2065278;28;19921;-41
2022/02/10 14:13:16;;;;;;;;;;;;;;;16.94;49.63;100568.28;2034524;28;20528;-41
2022/02/10 14:14:24;;;;;;;;;;;;;;;16.95;49.50;100560.97;2066196;28;20259;-41
2022/02/10 14:15:34;;;;;;;;;;;;;;;16.94;49.51;100557.41;2063537;28;19965;-41
2022/02/10 14:16:40;;;;;;;;;;;;;;;16.94;49.27;100560.13;2066753;28;19920;-41
2022/02/10 14:17:49;;;;;;;;;;;;;;;16.95;49.61;100561.84;2067035;28;19915;-41
2022/02/10 14:18:55;;;;;;;;;;;;;;;16.94;49.54;100560.13;2064002;28;19921;-41
2022/02/10 14:20:00;;;;;;;;;;;;;;;16.93;49.61;100556.53;2060807;28;19917;-41
2022/02/10 14:21:06;;;;;;;;;;;;;;;16.94;49.81;100562.84;2066165;28;20259;-41
2022/02/10 14:25:39;;;;;;;;;;;;;;;16.95;49.62;100564.56;2065138;28;19928;-41
2022/02/10 14:27:09;;;;;;;;;;;;;;;16.96;49.70;100563.59;2065160;28;19964;-40
2022/02/10 14:28:10;;;;;;;;;;;;;;;16.98;49.60;100563.44;2064120;28;19917;-40
2022/02/10 14:29:10;;;;;;;;;;;;;;;16.97;49.75;100568.03;2066745;28;19921;-40
2022/02/10 14:30:10;;;;;;;;;;;;;;;16.98;49.77;100563.44;2068347;28;20306;-39
2022/02/10 14:31:11;;;;;;;;;;;;;;;16.97;49.76;100562.59;2069004;28;20661;-40
2022/02/10 14:32:14;;;;;;;;;;;;;;;16.98;49.88;100558.00;2064142;28;19928;-40
2022/02/10 14:33:22;;;;;;;;;;;;;;;16.97;49.77;100551.69;2067296;28;20031;-40
2022/02/10 14:34:26;;;;;;;;;;;;;;;16.96;49.93;100555.41;2067597;28;19921;-39
2022/02/10 14:35:39;;;;;;;;;;;;;;;16.97;49.73;100553.56;2067559;28;19925;-40
2022/02/10 14:36:44;;;;;;;;;;;;;;;16.97;50.01;100551.69;2066818;28;19921;-40
2022/02/10 14:39:00;;;;;;;;;;;;;;;16.98;50.24;100552.56;2064760;28;19924;-40
2022/02/10 15:11:40;;;;;;;;;;;;;;;17.13;50.91;100544.00;2066907;28;19913;-40
2022/02/10 15:33:07;;;;;;;;;;;;;;;17.01;51.00;100528.69;2066897;28;20131;-41
2022/02/10 15:45:51;;;;;;;;;;;;;;;17.01;51.10;100525.94;2064352;28;19913;-40
2022/02/10 15:46:13;;;;;;;;;;;;;;;16.99;50.91;100533.38;2067353;28;19913;-42
2022/02/10 15:48:36;;;;;;;;;;;;;;;16.96;51.06;100516.44;2032383;28;19934;-42
2022/02/10 15:52:09;;;;;;;;;;;;;;;16.96;51.12;100522.75;2034224;28;19925;-41
2022/02/10 16:12:29;;;;;;;;;;;;;;;16.94;51.24;100513.81;2050534;28;19925;-41
2022/02/10 16:17:13;;;;;;;;;;;;;;;16.94;51.16;100513.81;2051308;28;20296;-43
2022/02/10 16:18:14;;;;;;;;;;;;;;;16.94;51.28;100508.38;2051834;28;19922;-43
2022/02/10 16:19:14;;;;;;;;;;;;;;;16.93;51.52;100507.53;2046764;28;20643;-43
2022/02/10 16:20:19;;;;;;;;;;;;;;;16.92;51.30;100503.03;2046089;28;20754;-42
2022/02/10 16:21:44;;;;;;;;;;;;;;;16.93;51.26;100506.66;2054336;28;19992;-44
2022/02/10 16:22:59;;;;;;;;;;;;;;;16.93;51.37;100517.56;2050801;28;20020;-42
2022/02/10 16:24:03;;;;;;;;;;;;;;;16.92;51.51;100515.81;2048864;28;20416;-43
2022/02/10 16:25:07;;;;;;;;;;;;;;;16.91;51.48;100503.19;2050301;28;19926;-42
2022/02/10 16:26:17;;;;;;;;;;;;;;;16.91;51.63;100505.91;2052303;28;20710;-42
2022/02/10 16:27:27;;;;;;;;;;;;;;;16.91;51.61;100508.66;2048741;28;20014;-42
2022/02/10 16:28:34;;;;;;;;;;;;;;;16.92;51.61;100507.63;2046870;28;19917;-42
2022/02/10 16:29:34;;;;;;;;;;;;;;;16.91;51.66;100508.66;2051032;28;19929;-42
2022/02/10 16:30:38;;;;;;;;;;;;;;;16.90;51.52;100501.44;2049760;28;19922;-42
2022/02/10 16:31:39;;;;;;;;;;;;;;;16.90;51.65;100502.34;2050293;28;19969;-42
2022/02/10 16:32:40;;;;;;;;;;;;;;;16.91;51.67;100503.19;2057784;28;19922;-42
2022/02/10 16:33:43;;;;;;;;;;;;;;;16.89;51.72;100500.59;2056299;28;20145;-42
2022/02/10 16:34:43;;;;;;;;;;;;;;;16.90;51.67;100502.34;2047516;28;19929;-43
2022/02/10 16:35:44;;;;;;;;;;;;;;;16.91;51.70;100508.66;2051658;28;19984;-43
2022/02/10 16:36:46;;;;;;;;;;;;;;;16.91;51.63;100508.66;2053223;28;20325;-41
2022/02/10 16:37:46;;;;;;;;;;;;;;;16.91;51.45;100504.06;2053885;28;20325;-41
2022/02/10 16:38:47;;;;;;;;;;;;;;;16.91;51.76;100505.91;2058833;28;19929;-41
2022/02/10 16:39:48;;;;;;;;;;;;;;;16.91;51.62;100511.38;2046566;28;19984;-43
2022/02/10 16:40:48;;;;;;;;;;;;;;;16.90;51.69;100515.94;2050853;28;19924;-41
2022/02/10 16:41:51;;;;;;;;;;;;;;;16.90;51.54;100513.22;2045207;28;19943;-42
2022/02/10 16:42:52;;;;;;;;;;;;;;;16.91;51.68;100514.09;2051322;28;19910;-41
2022/02/10 16:43:52;;;;;;;;;;;;;;;16.91;51.89;100514.09;2050742;28;19918;-42
2022/02/10 16:44:53;;;;;;;;;;;;;;;16.90;51.59;100506.88;2058473;28;20327;-42
2022/02/10 16:45:55;;;;;;;;;;;;;;;16.90;51.63;100512.34;2058635;28;20339;-42
2022/02/10 16:46:55;;;;;;;;;;;;;;;16.91;51.60;100508.66;2056344;28;19925;-42
2022/02/10 16:47:56;;;;;;;;;;;;;;;16.91;51.55;100508.66;2065591;28;20370;-42
2022/02/10 16:48:56;;;;;;;;;;;;;;;16.90;51.65;100502.34;2066950;28;19952;-42
2022/02/10 16:49:57;;;;;;;;;;;;;;;16.90;51.62;100506.88;2063714;28;20275;-42
2022/02/10 16:50:57;;;;;;;;;;;;;;;16.90;51.63;100507.78;2065995;28;20360;-42
2022/02/10 16:51:58;;;;;;;;;;;;;;;16.90;51.88;100506.88;2065161;28;19920;-42
2022/02/10 16:53:03;;;;;;;;;;;;;;;16.89;51.63;100505.16;2067456;28;19914;-42
2022/02/10 16:54:11;;;;;;;;;;;;;;;16.89;51.48;100507.91;2064212;28;19921;-40
2022/02/10 16:55:34;;;;;;;;;;;;;;;16.89;51.84;100506.03;2065928;28;20006;-40
2022/02/10 16:56:46;;;;;;;;;;;;;;;16.90;51.70;100506.88;2066144;28;19913;-42
2022/02/10 16:58:16;;;;;;;;;;;;;;;16.88;51.65;100504.31;2067181;28;19920;-41
2022/02/10 17:02:45;;;;;;;;;;;;;;;16.79;51.76;100501.47;2064940;28;20027;-42
2022/02/10 17:04:38;;;;;;;;;;;;;;;16.76;51.59;100504.44;2065878;28;19978;-44
2022/02/10 17:16:08;;;;;;;;;;;;;;;16.94;51.21;100505.66;2067222;28;20140;-40
2022/02/10 17:18:23;;;;;;;;;;;;;;;17.06;50.84;100511.97;2041279;28;19933;-42
2022/02/10 17:19:32;;;;;;;;;;;;;;;17.14;50.68;100515.75;2065301;28;19928;-42
2022/02/10 17:20:44;;;;;;;;;;;;;;;17.19;50.39;100507.22;2065572;28;19928;-42
2022/02/10 17:25:46;;;;;;;;;;;;;;;17.42;50.10;100516.22;2064471;28;19952;-42
2022/02/10 17:27:55;;;;;;;;;;;;;;;17.47;50.09;100515.81;2060438;28;20256;-42
2022/02/10 17:28:56;;;;;;;;;;;;;;;17.49;50.06;100517.44;2058443;28;20195;-42
2022/02/10 17:30:55;;;;;;;;;;;;;;;17.52;49.84;100519.03;2060388;28;19909;-41
2022/02/10 17:32:58;;;;;;;;;;;;;;;17.54;49.71;100522.47;2067761;28;20217;-42
2022/02/10 17:36:26;;;;;;;;;;;;;;;17.57;50.06;100522.22;2065232;28;20187;-40
2022/02/10 17:41:17;;;;;;;;;;;;;;;17.58;49.90;100523.94;2064263;28;19921;-40
2022/02/10 17:43:28;;;;;;;;;;;;;;;17.65;49.64;100530.59;2063617;28;19994;-41
2022/02/10 17:44:20;;;;;;;;;;;;;;;17.69;49.80;100531.22;2061470;28;19916;-41
2022/02/10 17:46:27;;;;;;;;;;;;;;;17.73;49.56;100532.69;2054789;28;20803;-42
2022/02/10 17:51:58;;;;;;;;;;;;;;;17.77;49.65;100535.03;2064805;28;19921;-42
2022/02/10 17:53:04;;;;;;;;;;;;;;;17.78;49.61;100533.16;2067112;28;19931;-42
2022/02/10 17:54:04;;;;;;;;;;;;;;;17.78;49.49;100530.41;2065638;28;19921;-42
2022/02/10 17:55:10;;;;;;;;;;;;;;;17.80;49.46;100536.66;2059780;28;19921;-42
2022/02/10 17:56:10;;;;;;;;;;;;;;;17.81;49.44;100538.41;2058075;28;19971;-43
2022/02/10 17:57:12;;;;;;;;;;;;;;;17.83;49.41;100532.78;2065940;28;19925;-43
2022/02/10 17:58:12;;;;;;;;;;;;;;;17.83;49.39;100540.97;2063201;28;19925;-42
2022/02/10 17:59:13;;;;;;;;;;;;;;;17.84;49.39;100540.84;2066770;28;19943;-42
2022/02/10 18:00:13;;;;;;;;;;;;;;;17.85;49.42;100537.13;2066697;28;19925;-43
2022/02/10 18:01:14;;;;;;;;;;;;;;;17.87;49.26;100539.72;2068328;28;19921;-43
2022/02/10 18:02:14;;;;;;;;;;;;;;;17.87;49.32;100542.47;2068073;28;19939;-42
2022/02/10 18:03:15;;;;;;;;;;;;;;;17.88;49.34;100541.44;2062473;28;20221;-43
2022/02/10 18:04:17;;;;;;;;;;;;;;;17.87;49.46;100543.31;2066432;28;19975;-42
2022/02/10 18:05:49;;;;;;;;;;;;;;;17.89;49.39;100538.59;2067849;28;19974;-43
2022/02/10 18:06:44;;;;;;;;;;;;;;;17.90;49.46;100544.91;2062653;28;20315;-44
2022/02/10 18:07:49;;;;;;;;;;;;;;;17.91;49.43;100535.75;2067023;28;19917;-42
2022/02/10 18:11:02;;;;;;;;;;;;;;;17.93;49.38;100540.06;2067743;28;20438;-42
2022/02/10 18:15:45;;;;;;;;;;;;;;;17.99;49.06;100547.72;2065512;28;19968;-41
2022/02/10 18:16:53;;;;;;;;;;;;;;;18.00;49.06;100546.72;2064851;28;19924;-42
2022/02/10 18:18:02;;;;;;;;;;;;;;;18.03;49.00;100547.44;2069365;28;20266;-42
2022/02/10 18:19:15;;;;;;;;;;;;;;;18.02;49.13;100543.00;2065366;28;19917;-42
2022/02/10 18:20:24;;;;;;;;;;;;;;;18.03;49.12;100550.16;2066230;28;19971;-42
2022/02/10 18:22:57;;;;;;;;;;;;;;;18.06;49.17;100550.78;2028425;29;19914;-43
2022/02/10 18:26:12;;;;;;;;;;;;;;;18.11;49.01;100548.53;2061632;28;19931;-42
2022/02/10 18:29:34;;;;;;;;;;;;;;;18.14;49.02;100552.84;2064555;28;19964;-42
2022/02/10 19:02:02;;;;;;;;;;;;;;;18.39;49.34;100562.50;2065531;28;19913;-41
2022/02/10 19:06:09;;;;;;;;;;;;;;;18.44;49.40;100565.69;2064268;28;19932;-41
2022/02/10 19:09:42;;;;;;;;;;;;;;;18.49;49.43;100557.94;2066705;28;19930;-41
2022/02/10 19:10:47;;;;;;;;;;;;;;;18.51;49.58;100560.56;2064928;28;19917;-41
2022/02/10 19:11:56;;;;;;;;;;;;;;;18.52;49.63;100562.28;2065951;28;20009;-40
2022/02/10 19:12:58;;;;;;;;;;;;;;;18.51;49.58;100555.09;2067536;28;19928;-41
2022/02/10 19:14:04;;;;;;;;;;;;;;;18.51;49.59;100561.41;2067624;28;20019;-41
2022/02/10 19:15:12;;;;;;;;;;;;;;;18.52;49.74;100556.81;2067017;28;19918;-42
2022/02/10 19:16:13;;;;;;;;;;;;;;;18.53;49.59;100553.97;2065906;28;20359;-41
2022/02/10 19:17:13;;;;;;;;;;;;;;;18.55;49.75;100562.03;2058034;28;19914;-41
2022/02/10 19:18:13;;;;;;;;;;;;;;;18.55;49.58;100562.03;2054664;28;19976;-41
2022/02/10 19:19:15;;;;;;;;;;;;;;;18.55;49.54;100564.75;2064592;28;20724;-42
2022/02/10 19:20:16;;;;;;;;;;;;;;;18.55;49.52;100570.22;2065749;28;19928;-41
2022/02/10 19:21:16;;;;;;;;;;;;;;;18.55;49.66;100567.50;2063849;28;19921;-41
2022/02/10 19:22:19;;;;;;;;;;;;;;;18.55;49.67;100572.94;2068054;28;19932;-41
2022/02/10 19:23:19;;;;;;;;;;;;;;;18.54;49.74;100573.94;2065180;28;20410;-41
2022/02/10 19:24:20;;;;;;;;;;;;;;;18.55;49.79;100565.63;2065278;28;20047;-41
2022/02/10 19:25:20;;;;;;;;;;;;;;;18.56;49.67;100571.94;2065679;28;19971;-41
2022/02/10 19:26:21;;;;;;;;;;;;;;;18.55;49.85;100572.94;2065049;28;19921;-40
2022/02/10 19:27:22;;;;;;;;;;;;;;;18.55;50.01;100575.69;2066645;28;19941;-41
2022/02/10 19:28:22;;;;;;;;;;;;;;;18.53;49.98;100577.66;2057384;28;20822;-41
2022/02/10 19:29:23;;;;;;;;;;;;;;;18.53;50.08;100580.41;2058422;28;19921;-41
2022/02/10 19:30:24;;;;;;;;;;;;;;;18.50;49.93;100575.22;2058060;28;19917;-41
2022/02/10 19:31:26;;;;;;;;;;;;;;;18.50;50.10;100581.53;2057060;28;19967;-41
2022/02/10 19:32:30;;;;;;;;;;;;;;;18.50;49.87;100580.69;2064853;28;19924;-42
2022/02/10 19:33:31;;;;;;;;;;;;;;;18.50;49.96;100586.13;2066658;28;20575;-41
2022/02/10 19:34:34;;;;;;;;;;;;;;;18.51;50.01;100587.84;2064898;28;19967;-40
2022/02/10 19:35:44;;;;;;;;;;;;;;;18.51;49.91;100585.13;2066320;28;20351;-39
2022/02/10 19:36:44;;;;;;;;;;;;;;;18.51;50.06;100587.84;2066335;28;19998;-44
2022/02/10 19:37:45;;;;;;;;;;;;;;;18.53;50.54;100586.72;2064806;28;20023;-46
2022/02/10 19:38:45;;;;;;;;;;;;;;;18.55;50.10;100586.59;2065643;28;20241;-44
2022/02/10 19:39:52;;;;;;;;;;;;;;;18.55;50.03;100589.34;2064115;28;20118;-45
2022/02/10 19:40:54;;;;;;;;;;;;;;;18.54;50.01;100584.84;2064650;28;19925;-44
2022/02/10 19:41:55;;;;;;;;;;;;;;;18.53;50.27;100597.66;2066504;28;20044;-46
2022/02/10 19:42:56;;;;;;;;;;;;;;;18.54;50.22;100587.59;2063286;28;19925;-46
2022/02/10 19:43:57;;;;;;;;;;;;;;;18.54;50.13;100595.78;2065238;28;20138;-44
2022/02/10 19:44:59;;;;;;;;;;;;;;;18.54;50.31;100595.78;2064340;28;20413;-44
2022/02/10 19:46:00;;;;;;;;;;;;;;;18.54;50.29;100595.78;2060269;28;20384;-43
2022/02/10 19:47:03;;;;;;;;;;;;;;;18.53;50.20;100596.78;2055578;28;19937;-41
2022/02/10 19:48:03;;;;;;;;;;;;;;;18.54;50.15;100598.50;2062211;28;20510;-42
2022/02/10 19:49:04;;;;;;;;;;;;;;;18.53;50.31;100591.31;2068363;28;19916;-42
2022/02/10 19:50:11;;;;;;;;;;;;;;;18.53;50.13;100591.31;2065762;28;19936;-43
2022/02/10 19:51:11;;;;;;;;;;;;;;;18.54;50.14;100593.03;2064907;28;20826;-42
2022/02/10 19:52:13;;;;;;;;;;;;;;;18.53;50.28;100585.88;2066514;28;20308;-42
2022/02/10 19:53:14;;;;;;;;;;;;;;;18.55;50.16;100589.34;2064242;28;19913;-43
2022/02/10 19:54:22;;;;;;;;;;;;;;;18.52;50.37;100584.13;2067404;28;19974;-43
2022/02/10 19:55:24;;;;;;;;;;;;;;;18.53;50.24;100591.31;2065110;28;19975;-43
2022/02/10 19:56:27;;;;;;;;;;;;;;;18.53;50.38;100594.06;2066406;28;20595;-43
2022/02/10 19:57:28;;;;;;;;;;;;;;;18.52;50.33;100587.72;2067216;28;19920;-42
2022/02/10 19:58:28;;;;;;;;;;;;;;;18.52;50.32;100584.13;2063812;28;19921;-43
2022/02/10 19:59:31;;;;;;;;;;;;;;;18.52;50.42;100584.13;2058101;28;19987;-42
2022/02/10 20:00:37;;;;;;;;;;;;;;;18.50;50.34;100586.13;2056187;28;19984;-44
2022/02/10 20:01:37;;;;;;;;;;;;;;;18.51;50.46;100587.84;2063557;28;20111;-43
2022/02/10 20:02:37;;;;;;;;;;;;;;;18.51;50.41;100587.84;2063554;28;20147;-45
2022/02/10 20:03:40;;;;;;;;;;;;;;;18.50;50.49;100581.53;2067103;28;19912;-43
2022/02/10 20:04:40;;;;;;;;;;;;;;;18.49;50.26;100585.25;2068282;28;19929;-44
2022/02/10 20:05:48;;;;;;;;;;;;;;;18.50;50.34;100583.41;2070239;28;19990;-45
2022/02/10 20:06:49;;;;;;;;;;;;;;;18.49;50.34;100578.94;2065623;28;19928;-45
2022/02/10 20:07:51;;;;;;;;;;;;;;;18.49;50.42;100581.66;2064097;28;19928;-45
2022/02/10 20:08:51;;;;;;;;;;;;;;;18.49;50.26;100581.66;2065782;28;19917;-45
2022/02/10 20:09:52;;;;;;;;;;;;;;;18.48;50.45;100586.25;2054705;28;20027;-46
2022/02/10 20:10:56;;;;;;;;;;;;;;;18.49;50.43;100585.25;2056089;28;19921;-43
2022/02/10 20:11:57;;;;;;;;;;;;;;;18.49;50.45;100589.84;2066259;28;19980;-44
2022/02/10 20:12:58;;;;;;;;;;;;;;;18.48;50.35;100585.41;2066454;28;20608;-44
2022/02/10 20:13:58;;;;;;;;;;;;;;;18.47;50.42;100587.28;2064551;28;19925;-43